Time;durP1;ratioP1;P1;durP2;ratioP2;P2;SDS_P1;SDS_P2;PMS_P1;PMS_P2;Temp;Humidity;BMP_temperature;BMP_pressure;BME280_temperature;BME280_humidity;BME280_pressure;Samples;Min_cycle;Max_cycle;Signal;HPM_P1;HPM_P2
2022/06/15 00:01:51;;;;;;;2.70;1.13;;;16.30;86.40;;;;;;5010516;28;20053;-84
2022/06/15 00:04:17;;;;;;;6.53;1.63;;;16.30;86.70;;;;;;5011214;28;20072;-85
2022/06/15 00:06:43;;;;;;;3.53;1.80;;;16.30;86.70;;;;;;5011948;28;20037;-87
2022/06/15 00:09:09;;;;;;;8.20;1.95;;;16.30;86.90;;;;;;5011508;28;20034;-85
2022/06/15 00:11:42;;;;;;;5.90;2.13;;;16.30;86.70;;;;;;5010862;28;20045;-86
2022/06/15 00:14:18;;;;;;;6.50;1.80;;;16.20;87.00;;;;;;5011810;28;20030;-86
2022/06/15 00:16:44;;;;;;;5.13;2.00;;;16.20;87.30;;;;;;5011902;28;20034;-87
2022/06/15 00:19:10;;;;;;;7.22;1.90;;;16.20;86.80;;;;;;5011947;28;20113;-86
2022/06/15 00:21:36;;;;;;;7.13;1.70;;;16.20;87.00;;;;;;5012445;28;20030;-86
2022/06/15 00:24:02;;;;;;;6.88;1.95;;;16.20;86.70;;;;;;5011960;28;20057;-87
2022/06/15 00:26:28;;;;;;;6.20;1.85;;;16.20;86.70;;;;;;5012180;28;20049;-87
2022/06/15 00:28:54;;;;;;;8.45;1.80;;;16.10;87.30;;;;;;5010010;28;20030;-86
2022/06/15 00:31:20;;;;;;;7.35;1.65;;;16.10;87.50;;;;;;5010436;28;20045;-86
2022/06/15 00:33:47;;;;;;;4.30;1.70;;;16.00;87.60;;;;;;5012562;28;20018;-87
2022/06/15 00:36:18;;;;;;;7.50;1.88;;;15.90;88.30;;;;;;5011108;28;20108;-85
2022/06/15 00:38:46;;;;;;;2.78;1.50;;;15.90;88.20;;;;;;5011554;28;20030;-86
2022/06/15 00:41:14;;;;;;;;;;;16.00;89.30;;;;;;5011570;28;20045;-85
2022/06/15 00:43:47;;;;;;;6.22;1.60;;;15.80;88.90;;;;;;5010414;28;20366;-86
2022/06/15 00:46:24;;;;;;;4.22;1.70;;;15.80;89.20;;;;;;5012604;28;20036;-86
2022/06/15 00:48:57;;;;;;;5.57;1.90;;;15.80;88.70;;;;;;5015474;28;20026;-86
2022/06/15 00:51:24;;;;;;;7.82;1.75;;;15.80;88.90;;;;;;5015292;28;20097;-84
2022/06/15 00:53:51;;;;;;;3.65;1.85;;;15.80;89.20;;;;;;5014965;28;20040;-85
2022/06/15 00:56:17;;;;;;;8.02;2.00;;;15.70;89.40;;;;;;5014824;28;20026;-85
2022/06/15 00:58:48;;;;;;;7.60;1.75;;;15.70;89.60;;;;;;5014644;28;20026;-87
2022/06/15 01:01:14;;;;;;;6.85;1.83;;;15.70;89.30;;;;;;5014907;28;20057;-85
2022/06/15 01:03:43;;;;;;;7.05;1.88;;;15.60;90.00;;;;;;5014672;28;20056;-86
2022/06/15 01:06:32;;;;;;;2.45;1.38;;;15.50;90.20;;;;;;5015156;28;20041;-85
2022/06/15 01:09:23;;;;;;;4.28;1.23;;;15.30;90.70;;;;;;5014542;28;20084;-86
2022/06/15 01:12:25;;;;;;;6.32;1.45;;;15.30;90.90;;;;;;5013827;28;20026;-84
2022/06/15 01:15:04;;;;;;;4.85;1.75;;;15.20;90.90;;;;;;5014507;28;20030;-85
2022/06/15 01:18:10;;;;;;;12.10;2.00;;;15.30;90.90;;;;;;5014406;28;20080;-85
2022/06/15 01:20:57;;;;;;;3.63;1.85;;;15.30;90.90;;;;;;5014053;28;20042;-85
2022/06/15 01:23:56;;;;;;;10.48;2.22;;;15.30;91.00;;;;;;5014192;28;20092;-85
2022/06/15 01:26:26;;;;;;;8.07;1.83;;;15.20;91.10;;;;;;5014252;28;20125;-84
2022/06/15 01:29:15;;;;;;;5.10;1.75;;;15.10;91.50;;;;;;5014070;28;20121;-87
2022/06/15 01:31:47;;;;;;;9.88;2.30;;;15.10;91.50;;;;;;5014938;28;20065;-87
2022/06/15 01:34:19;;;;;;;7.95;2.60;;;15.00;91.70;;;;;;5014853;28;20026;-86
2022/06/15 01:37:09;;;;;;;5.95;1.85;;;15.00;91.80;;;;;;5014206;28;20029;-86
2022/06/15 01:39:44;;;;;;;10.18;1.90;;;14.90;91.90;;;;;;5015439;28;20034;-88
2022/06/15 01:42:27;;;;;;;8.15;2.22;;;14.90;91.90;;;;;;5029880;28;20049;-87
2022/06/15 01:44:59;;;;;;;6.53;1.52;;;14.90;92.10;;;;;;5014249;28;20040;-86
2022/06/15 01:47:27;;;;;;;6.75;1.88;;;14.80;92.20;;;;;;5014016;28;20026;-86
2022/06/15 01:50:06;;;;;;;5.22;1.80;;;14.70;92.30;;;;;;5029500;28;20045;-87
2022/06/15 01:52:38;;;;;;;9.57;1.98;;;14.60;92.60;;;;;;5013875;28;20036;-86
2022/06/15 01:55:23;;;;;;;7.13;2.20;;;14.60;92.70;;;;;;5014029;28;20030;-86
2022/06/15 01:57:52;;;;;;;4.88;2.17;;;14.60;92.90;;;;;;5019223;28;20048;-85
2022/06/15 02:00:19;;;;;;;4.22;1.98;;;14.50;93.00;;;;;;5034228;28;20029;-87
2022/06/15 02:02:47;;;;;;;9.35;2.33;;;14.40;92.90;;;;;;5034037;28;20103;-86
2022/06/15 02:05:27;;;;;;;4.13;1.65;;;14.40;93.10;;;;;;5033963;28;20456;-85
2022/06/15 02:07:58;;;;;;;14.05;2.28;;;14.30;93.30;;;;;;5033536;28;20124;-86
2022/06/15 02:10:36;;;;;;;6.57;2.15;;;14.20;93.40;;;;;;5033926;28;20041;-85
2022/06/15 02:13:05;;;;;;;;;;;14.20;93.50;;;;;;5034153;28;20021;-84
2022/06/15 02:15:33;;;;;;;5.43;1.92;;;14.30;93.50;;;;;;5034159;28;19909;-85
2022/06/15 02:18:04;;;;;;;7.90;2.00;;;14.30;93.70;;;;;;5033120;28;20033;-86
2022/06/15 02:20:36;;;;;;;11.45;2.70;;;14.30;93.70;;;;;;5032723;28;20045;-84
2022/06/15 02:23:04;;;;;;;6.05;2.22;;;14.30;93.80;;;;;;5032696;28;20416;-85
2022/06/15 02:25:36;;;;;;;5.15;2.03;;;14.20;93.80;;;;;;5031781;28;20029;-86
2022/06/15 02:28:03;;;;;;;6.95;2.25;;;14.30;93.80;;;;;;5032611;28;20040;-84
2022/06/15 02:30:31;;;;;;;8.50;2.25;;;14.30;93.80;;;;;;5032031;28;20083;-84
2022/06/15 02:33:08;;;;;;;9.63;2.40;;;14.30;93.80;;;;;;5032513;28;20065;-85
2022/06/15 02:35:35;;;;;;;8.50;2.75;;;14.20;93.80;;;;;;5032481;28;20335;-85
2022/06/15 02:38:00;;;;;;;5.10;2.25;;;14.20;94.00;;;;;;5032718;28;20099;-86
2022/06/15 02:40:26;;;;;;;5.43;2.38;;;14.20;93.90;;;;;;5032321;28;20029;-85
2022/06/15 02:42:51;;;;;;;8.65;2.13;;;14.20;94.10;;;;;;5033408;28;20503;-87
2022/06/15 02:45:23;;;;;;;5.63;2.33;;;14.20;94.20;;;;;;5033038;28;20030;-86
2022/06/15 02:47:49;;;;;;;9.43;2.90;;;14.20;93.90;;;;;;5033024;28;20105;-86
2022/06/15 02:50:20;;;;;;;7.32;2.25;;;14.30;94.10;;;;;;5032651;28;20033;-85
2022/06/15 02:52:57;;;;;;;9.50;2.55;;;14.40;93.90;;;;;;5032921;28;20037;-85
2022/06/15 02:55:25;;;;;;;4.55;2.03;;;14.40;93.70;;;;;;5034346;28;20030;-87
2022/06/15 02:58:08;;;;;;;10.93;2.65;;;14.40;93.70;;;;;;5034528;28;20466;-86
2022/06/15 03:00:36;;;;;;;6.05;2.28;;;14.40;94.10;;;;;;5033817;28;20053;-86
2022/06/15 03:03:02;;;;;;;;;;;14.40;93.90;;;;;;5035984;28;20060;-85
2022/06/15 03:05:29;;;;;;;4.35;2.00;;;14.40;93.80;;;;;;5035154;28;20016;-86
2022/06/15 03:07:54;;;;;;;4.75;2.05;;;14.40;93.80;;;;;;5036233;28;20025;-85
2022/06/15 03:10:20;;;;;;;8.73;2.53;;;14.30;93.80;;;;;;5034996;28;20063;-85
2022/06/15 03:12:47;;;;;;;5.72;2.22;;;14.30;93.70;;;;;;5036036;28;20031;-83
2022/06/15 03:15:14;;;;;;;4.43;2.30;;;14.30;93.90;;;;;;5032376;28;20033;-84
2022/06/15 03:17:40;;;;;;;7.65;2.58;;;14.30;94.00;;;;;;5032077;28;20688;-84
2022/06/15 03:20:07;;;;;;;5.25;2.47;;;14.30;94.00;;;;;;5033062;28;20037;-83
2022/06/15 03:22:34;;;;;;;7.88;2.33;;;14.30;94.20;;;;;;5033373;28;20021;-84
2022/06/15 03:24:59;;;;;;;8.20;2.33;;;14.20;94.00;;;;;;5037244;28;20025;-86
2022/06/15 03:27:25;;;;;;;8.73;2.50;;;14.10;94.10;;;;;;5032451;28;20031;-82
2022/06/15 03:30:07;;;;;;;7.55;2.33;;;14.10;94.10;;;;;;5033055;28;20716;-86
2022/06/15 03:32:33;;;;;;;7.82;2.63;;;14.00;94.10;;;;;;5033627;28;20041;-85
2022/06/15 03:34:59;;;;;;;6.75;2.17;;;14.00;94.30;;;;;;5034251;28;20037;-87
2022/06/15 03:37:25;;;;;;;6.65;2.25;;;14.00;94.30;;;;;;5032725;28;20095;-85
2022/06/15 03:39:54;;;;;;;8.52;2.38;;;13.90;94.40;;;;;;5032607;28;20026;-84
2022/06/15 03:42:22;;;;;;;6.13;2.30;;;14.00;94.50;;;;;;5030981;28;20428;-86
2022/06/15 03:44:50;;;;;;;8.88;2.38;;;14.10;94.50;;;;;;5031486;28;20030;-83
2022/06/15 03:47:17;;;;;;;8.63;2.80;;;14.10;94.30;;;;;;5031256;28;20029;-84
2022/06/15 03:49:44;;;;;;;6.27;2.17;;;14.20;94.30;;;;;;5029662;28;20033;-83
2022/06/15 03:52:10;;;;;;;3.90;2.25;;;14.10;94.20;;;;;;5032030;28;20459;-83
2022/06/15 03:54:36;;;;;;;6.93;2.42;;;14.10;94.30;;;;;;5031393;28;20037;-85
2022/06/15 03:57:03;;;;;;;8.88;2.45;;;14.10;94.50;;;;;;5031206;28;20033;-85
2022/06/15 03:59:29;;;;;;;8.95;2.80;;;14.20;94.30;;;;;;5030984;28;20471;-85
2022/06/15 04:01:56;;;;;;;9.20;2.83;;;14.20;94.10;;;;;;5031047;28;20106;-84
2022/06/15 04:04:24;;;;;;;8.55;2.08;;;14.20;93.90;;;;;;5030866;28;20037;-84
2022/06/15 04:06:50;;;;;;;7.22;2.67;;;14.20;94.00;;;;;;5031436;28;20018;-85
2022/06/15 04:09:21;;;;;;;11.40;2.88;;;14.20;93.90;;;;;;5030928;28;20044;-85
2022/06/15 04:11:59;;;;;;;8.60;2.70;;;14.20;93.70;;;;;;5031142;28;20036;-87
2022/06/15 04:14:35;;;;;;;6.05;2.45;;;14.40;93.80;;;;;;5031151;28;20167;-85
2022/06/15 04:17:02;;;;;;;8.73;2.60;;;14.30;93.80;;;;;;5031221;28;20034;-84
2022/06/15 04:19:31;;;;;;;6.60;3.03;;;14.20;93.90;;;;;;5030983;28;20511;-85
2022/06/15 04:21:58;;;;;;;8.98;3.20;;;14.30;93.80;;;;;;5032934;28;20122;-84
2022/06/15 04:24:28;;;;;;;12.57;3.10;;;14.30;93.70;;;;;;5045614;28;20014;-84
2022/06/15 04:26:53;;;;;;;7.78;2.58;;;14.40;93.70;;;;;;5047350;28;20025;-84
2022/06/15 04:29:20;;;;;;;7.82;2.75;;;14.40;93.80;;;;;;5046198;28;20329;-84
2022/06/15 04:31:47;;;;;;;6.35;2.85;;;14.40;93.50;;;;;;5041343;28;20046;-83
2022/06/15 04:34:13;;;;;;;7.68;3.05;;;14.50;93.70;;;;;;5034730;28;20065;-83
2022/06/15 04:36:41;;;;;;;4.93;2.53;;;14.40;93.60;;;;;;5036363;28;20030;-84
2022/06/15 04:39:08;;;;;;;10.13;2.53;;;14.50;93.40;;;;;;5035169;28;20057;-84
2022/06/15 04:41:38;;;;;;;6.55;2.35;;;14.50;93.50;;;;;;5033604;28;20048;-84
2022/06/15 04:44:05;;;;;;;7.15;2.65;;;14.60;93.70;;;;;;5034564;28;20412;-83
2022/06/15 04:46:32;;;;;;;7.63;3.00;;;14.60;93.60;;;;;;5034261;28;20073;-84
2022/06/15 04:48:58;;;;;;;10.30;3.53;;;14.60;93.50;;;;;;5034650;28;20029;-83
2022/06/15 04:51:29;;;;;;;7.75;2.60;;;14.70;93.30;;;;;;5035764;28;20040;-87
2022/06/15 04:53:57;;;;;;;10.73;2.63;;;14.80;93.30;;;;;;5036614;28;20121;-84
2022/06/15 04:56:24;;;;;;;8.75;2.70;;;14.90;93.30;;;;;;5036806;28;20084;-86
2022/06/15 04:58:50;;;;;;;8.55;2.88;;;14.90;93.10;;;;;;5043586;28;20181;-87
2022/06/15 05:01:16;;;;;;;8.23;3.00;;;15.00;93.10;;;;;;5042925;28;20033;-84
2022/06/15 05:03:43;;;;;;;5.88;2.65;;;15.10;93.00;;;;;;5044751;28;20025;-86
2022/06/15 05:06:16;;;;;;;9.40;2.88;;;15.20;92.90;;;;;;5043317;28;20038;-86
2022/06/15 05:08:42;;;;;;;5.15;2.40;;;15.30;93.00;;;;;;5040829;28;20041;-84
2022/06/15 05:11:08;;;;;;;9.20;2.75;;;15.30;92.80;;;;;;5039755;28;20041;-84
2022/06/15 05:13:34;;;;;;;10.35;3.30;;;15.40;92.70;;;;;;5034498;28;20355;-82
2022/06/15 05:16:00;;;;;;;9.45;2.47;;;15.50;92.30;;;;;;5037573;28;20029;-81
2022/06/15 05:18:26;;;;;;;4.32;2.35;;;15.60;92.20;;;;;;5038341;28;20048;-81
2022/06/15 05:20:52;;;;;;;6.32;2.25;;;15.70;92.10;;;;;;5033956;28;20037;-82
2022/06/15 05:23:17;;;;;;;4.65;2.50;;;15.70;92.00;;;;;;5034141;28;20025;-80
2022/06/15 05:25:43;;;;;;;7.80;1.92;;;15.80;91.90;;;;;;5033786;28;20301;-84
2022/06/15 05:28:12;;;;;;;10.15;2.20;;;15.90;91.80;;;;;;5039861;28;20033;-85
2022/06/15 05:30:38;;;;;;;5.43;1.92;;;16.00;91.70;;;;;;5037567;28;20022;-86
2022/06/15 05:33:04;;;;;;;7.72;2.42;;;16.10;91.50;;;;;;5035071;28;20045;-87
2022/06/15 05:35:30;;;;;;;5.13;2.42;;;16.10;91.40;;;;;;5035668;28;20091;-87
2022/06/15 05:37:56;;;;;;;8.48;2.17;;;16.20;91.30;;;;;;5034819;28;20041;-89
2022/06/15 05:40:21;;;;;;;9.82;2.65;;;16.30;91.30;;;;;;5033141;28;20111;-83
2022/06/15 05:42:47;;;;;;;13.98;2.88;;;16.40;91.20;;;;;;5034667;28;20356;-87
2022/06/15 05:45:13;;;;;;;10.20;2.28;;;16.50;91.00;;;;;;5034572;28;20029;-87
2022/06/15 05:47:39;;;;;;;4.95;2.10;;;16.60;90.70;;;;;;5034275;28;20086;-87
2022/06/15 05:50:07;;;;;;;11.43;2.15;;;16.70;90.60;;;;;;5034352;28;20068;-87
2022/06/15 05:52:32;;;;;;;6.00;1.70;;;16.90;90.50;;;;;;5034590;28;20049;-86
2022/06/15 05:55:00;;;;;;;8.40;2.70;;;17.00;90.20;;;;;;5034105;28;20034;-84
2022/06/15 05:57:27;;;;;;;6.78;2.20;;;17.20;90.00;;;;;;5034656;28;20052;-85
2022/06/15 05:59:58;;;;;;;6.18;2.08;;;17.40;89.40;;;;;;5033245;28;20030;-86
2022/06/15 06:02:26;;;;;;;7.95;2.13;;;17.50;88.70;;;;;;5033849;28;20037;-86
2022/06/15 06:04:52;;;;;;;8.20;2.15;;;17.60;88.30;;;;;;5034307;28;20366;-86
2022/06/15 06:07:20;;;;;;;7.47;1.88;;;17.70;88.10;;;;;;5032430;28;20129;-88
2022/06/15 06:09:46;;;;;;;5.00;1.63;;;17.70;87.70;;;;;;5034564;28;20022;-85
2022/06/15 06:12:12;;;;;;;4.93;2.22;;;17.70;87.80;;;;;;5033775;28;20029;-86
2022/06/15 06:14:38;;;;;;;10.38;2.70;;;17.70;87.40;;;;;;5032748;28;20301;-88
2022/06/15 06:17:05;;;;;;;6.65;2.15;;;17.70;87.20;;;;;;5033420;28;20124;-85
2022/06/15 06:19:31;;;;;;;4.83;2.13;;;17.70;87.70;;;;;;5032482;28;20118;-87
2022/06/15 06:21:56;;;;;;;5.70;2.00;;;17.70;87.30;;;;;;5032640;28;20837;-87
2022/06/15 06:24:22;;;;;;;6.18;1.98;;;17.80;87.40;;;;;;5033777;28;20096;-86
2022/06/15 06:26:48;;;;;;;5.05;2.00;;;17.90;86.90;;;;;;5033377;28;20367;-85
2022/06/15 06:29:16;;;;;;;6.68;2.20;;;18.00;86.30;;;;;;5032139;28;20025;-85
2022/06/15 06:31:42;;;;;;;7.47;2.08;;;18.10;85.70;;;;;;5033450;28;20049;-86
2022/06/15 06:34:08;;;;;;;12.20;2.25;;;18.30;85.50;;;;;;5032035;28;20357;-86
2022/06/15 06:36:44;;;;;;;6.57;2.08;;;18.30;84.90;;;;;;5036399;28;20100;-89
2022/06/15 06:39:21;;;;;;;4.78;2.10;;;18.40;84.70;;;;;;5033180;28;20029;-87
2022/06/15 06:41:47;;;;;;;6.53;2.60;;;18.40;84.50;;;;;;5033519;28;20399;-86
2022/06/15 06:44:13;;;;;;;8.95;2.05;;;18.40;84.50;;;;;;5032017;28;20042;-88
2022/06/15 06:46:44;;;;;;;9.45;2.30;;;18.40;84.80;;;;;;5033477;28;20025;-85
2022/06/15 06:49:10;;;;;;;8.50;2.17;;;18.40;85.00;;;;;;5033145;28;20021;-84
2022/06/15 06:51:38;;;;;;;7.28;1.95;;;18.50;84.30;;;;;;5033360;28;20333;-83
2022/06/15 06:54:05;;;;;;;8.00;2.35;;;18.50;83.70;;;;;;5032516;28;20091;-87
2022/06/15 06:56:31;;;;;;;10.25;2.80;;;18.50;83.70;;;;;;5033067;28;20026;-86
2022/06/15 06:58:56;;;;;;;6.13;2.17;;;18.50;84.00;;;;;;5032389;28;20387;-86
2022/06/15 07:01:22;;;;;;;11.02;2.22;;;18.50;84.10;;;;;;5031390;28;20448;-87
2022/06/15 07:03:48;;;;;;;8.77;2.40;;;18.60;84.00;;;;;;5032986;28;20432;-85
2022/06/15 07:06:14;;;;;;;5.68;2.05;;;18.70;83.80;;;;;;5032981;28;20048;-87
2022/06/15 07:08:40;;;;;;;8.80;2.03;;;18.90;83.50;;;;;;5032653;28;20446;-86
2022/06/15 07:11:10;;;;;;;7.45;2.10;;;19.00;83.20;;;;;;5031158;28;20037;-86
2022/06/15 07:13:36;;;;;;;9.15;1.75;;;19.10;82.50;;;;;;5032391;28;20523;-86
2022/06/15 07:16:10;;;;;;;7.70;2.83;;;19.30;82.00;;;;;;5031146;28;20367;-85
2022/06/15 07:18:36;;;;;;;12.18;1.85;;;19.60;81.90;;;;;;5032802;28;20052;-85
2022/06/15 07:21:12;;;;;;;4.93;1.90;;;19.60;81.70;;;;;;5032193;28;20099;-87
2022/06/15 07:23:39;;;;;;;5.50;2.15;;;19.70;81.60;;;;;;5031894;28;20424;-85
2022/06/15 07:26:08;;;;;;;7.35;2.25;;;19.80;81.50;;;;;;5032089;28;20444;-84
2022/06/15 07:28:34;;;;;;;6.32;1.75;;;19.70;81.20;;;;;;5030233;28;20094;-85
2022/06/15 07:31:00;;;;;;;5.47;1.73;;;19.80;80.80;;;;;;5031492;28;20026;-86
2022/06/15 07:33:26;;;;;;;8.85;1.98;;;19.80;80.80;;;;;;5032321;28;20041;-86
2022/06/15 07:35:51;;;;;;;4.97;1.70;;;19.80;81.00;;;;;;5032159;28;20029;-86
2022/06/15 07:38:19;;;;;;;7.95;2.17;;;19.70;81.00;;;;;;5030113;28;20026;-83
2022/06/15 07:40:46;;;;;;;8.80;2.40;;;19.80;81.50;;;;;;5030582;28;20658;-84
2022/06/15 07:43:12;;;;;;;7.07;1.60;;;20.00;80.60;;;;;;5030689;28;20025;-87
2022/06/15 07:45:38;;;;;;;8.98;1.83;;;20.10;80.60;;;;;;5032118;28;20328;-87
2022/06/15 07:50:48;;;;;;;7.28;1.90;;;20.40;80.90;;;;;;5032236;28;20541;-87
2022/06/15 07:53:15;;;;;;;6.90;1.60;;;20.60;79.70;;;;;;5031018;28;20038;-87
2022/06/15 07:55:45;;;;;;;7.72;1.30;;;20.90;79.60;;;;;;5031766;28;20040;-86
2022/06/15 07:58:11;;;;;;;10.75;2.00;;;21.20;78.30;;;;;;5031872;28;20032;-82
2022/06/15 08:00:40;;;;;;;8.30;3.05;;;21.40;78.00;;;;;;5031838;28;20108;-88
2022/06/15 08:03:07;;;;;;;4.82;1.50;;;21.60;77.20;;;;;;5031661;28;20035;-87
2022/06/15 08:05:42;;;;;;;6.63;1.67;;;21.70;77.70;;;;;;5031620;28;20076;-87
2022/06/15 08:08:12;;;;;;;4.97;1.50;;;22.30;77.40;;;;;;5030543;28;20033;-86
2022/06/15 08:10:37;;;;;;;8.32;2.40;;;22.70;74.20;;;;;;5031685;28;20053;-87
2022/06/15 08:13:05;;;;;;;3.88;1.35;;;23.20;72.40;;;;;;5030537;28;20060;-87
2022/06/15 08:15:31;;;;;;;4.70;1.55;;;23.90;72.10;;;;;;5030720;28;20014;-87
2022/06/15 08:18:07;;;;;;;6.97;1.55;;;25.00;68.30;;;;;;5031299;28;20142;-87
2022/06/15 08:20:37;;;;;;;8.98;1.98;;;25.50;66.40;;;;;;5031968;28;20030;-87
2022/06/15 08:23:10;;;;;;;9.05;1.50;;;25.40;65.90;;;;;;5031512;28;20431;-87
2022/06/15 08:25:39;;;;;;;4.43;1.30;;;26.60;67.00;;;;;;5031552;28;20053;-86
2022/06/15 08:28:07;;;;;;;5.93;1.45;;;27.60;62.30;;;;;;5031947;28;20026;-87
2022/06/15 08:30:36;;;;;;;5.88;1.38;;;28.20;59.60;;;;;;5032384;28;20029;-87
2022/06/15 08:33:03;;;;;;;5.15;1.35;;;28.50;57.90;;;;;;5031003;28;20145;-89
2022/06/15 08:35:29;;;;;;;7.75;2.13;;;29.00;56.80;;;;;;5031435;28;20122;-88
2022/06/15 08:37:56;;;;;;;5.33;1.50;;;29.50;57.00;;;;;;5032292;28;20025;-90
2022/06/15 08:40:22;;;;;;;5.75;2.00;;;29.90;54.10;;;;;;5030726;28;20053;-87
2022/06/15 08:43:04;;;;;;;9.50;1.60;;;30.50;52.70;;;;;;5031233;28;20080;-88
2022/06/15 08:45:43;;;;;;;6.22;1.70;;;30.90;53.50;;;;;;5030619;28;20410;-88
2022/06/15 08:48:58;;;;;;;5.50;1.95;;;31.40;51.00;;;;;;5031506;28;20373;-90
2022/06/15 08:51:36;;;;;;;8.63;1.27;;;31.70;50.40;;;;;;5009238;28;20053;-86
2022/06/15 08:54:07;;;;;;;8.48;2.15;;;31.40;50.50;;;;;;5026651;28;20236;-88
2022/06/15 08:56:47;;;;;;;7.57;2.03;;;31.80;49.40;;;;;;5030430;28;20033;-88
2022/06/15 08:59:32;;;;;;;9.43;1.90;;;31.00;48.90;;;;;;5031192;28;20037;-89
2022/06/15 09:02:08;;;;;;;7.50;1.70;;;31.70;47.00;;;;;;5029517;28;20466;-88
2022/06/15 09:04:53;;;;;;;7.22;2.25;;;30.50;47.80;;;;;;5030779;28;20057;-89
2022/06/15 09:07:22;;;;;;;6.60;2.53;;;30.90;49.00;;;;;;5030652;28;20118;-87
2022/06/15 09:10:07;;;;;;;8.50;2.60;;;31.50;47.20;;;;;;5034432;28;20025;-88
2022/06/15 09:13:11;;;;;;;5.03;1.50;;;30.50;48.00;;;;;;5033305;28;20041;-89
2022/06/15 09:16:06;;;;;;;8.55;1.63;;;30.90;48.10;;;;;;5033755;28;20107;-87
2022/06/15 09:18:35;;;;;;;6.75;1.35;;;30.70;47.00;;;;;;5027719;28;20046;-87
2022/06/15 09:21:15;;;;;;;3.83;1.27;;;31.00;47.20;;;;;;5034175;28;20143;-86
2022/06/15 09:24:16;;;;;;;3.92;1.30;;;30.70;46.90;;;;;;5034783;28;20169;-88
2022/06/15 09:26:52;;;;;;;9.45;1.48;;;30.30;46.90;;;;;;5033042;28;20025;-88
2022/06/15 09:29:45;;;;;;;4.43;1.33;;;29.50;47.50;;;;;;5033563;28;20037;-87
2022/06/15 09:32:21;;;;;;;7.85;1.55;;;29.40;47.80;;;;;;5031574;28;20488;-87
2022/06/15 09:35:09;;;;;;;6.45;1.20;;;29.10;48.00;;;;;;5033291;28;20087;-88
2022/06/15 09:37:40;;;;;;;6.47;1.40;;;29.10;48.70;;;;;;5032556;28;20033;-86
2022/06/15 09:40:07;;;;;;;7.35;1.70;;;28.80;48.50;;;;;;5033114;28;20025;-85
2022/06/15 09:42:58;;;;;;;6.00;1.52;;;28.80;48.60;;;;;;5034043;28;20129;-87
2022/06/15 09:45:36;;;;;;;5.88;1.67;;;28.80;48.50;;;;;;5033736;28;20055;-86
2022/06/15 09:48:32;;;;;;;7.10;1.60;;;28.40;48.80;;;;;;5032074;28;20030;-86
2022/06/15 09:51:06;;;;;;;5.32;1.52;;;28.00;49.00;;;;;;5033850;28;20029;-85
2022/06/15 09:53:51;;;;;;;5.80;1.65;;;27.90;49.60;;;;;;5033409;28;20168;-87
2022/06/15 09:56:20;;;;;;;7.28;1.38;;;27.90;49.00;;;;;;5015038;28;20034;-87
2022/06/15 09:58:54;;;;;;;7.68;1.90;;;27.60;49.70;;;;;;5033079;28;20029;-87
2022/06/15 10:01:26;;;;;;;6.53;1.50;;;27.60;50.10;;;;;;5033497;28;20467;-87
2022/06/15 10:03:54;;;;;;;6.90;1.70;;;27.50;50.30;;;;;;5033399;28;20025;-85
2022/06/15 10:06:27;;;;;;;4.63;1.13;;;27.60;50.10;;;;;;5033395;28;20124;-87
2022/06/15 10:08:56;;;;;;;3.85;1.27;;;27.60;50.00;;;;;;5033257;28;20483;-83
2022/06/15 10:11:30;;;;;;;9.57;4.70;;;27.60;50.10;;;;;;5032172;28;20252;-85
2022/06/15 10:13:55;;;;;;;10.50;4.50;;;27.40;49.70;;;;;;5031621;28;20034;-85
2022/06/15 10:16:27;;;;;;;5.43;1.60;;;27.50;50.20;;;;;;5031869;28;20040;-87
2022/06/15 10:18:58;;;;;;;8.90;1.13;;;27.40;50.40;;;;;;5032167;28;20021;-84
2022/06/15 10:21:29;;;;;;;3.75;1.60;;;27.20;50.20;;;;;;5033015;28;20037;-85
2022/06/15 10:24:01;;;;;;;6.13;1.20;;;27.20;50.20;;;;;;5032184;28;20037;-83
2022/06/15 10:26:41;;;;;;;6.05;1.27;;;27.20;50.20;;;;;;5032270;28;20111;-83
2022/06/15 10:29:15;;;;;;;7.38;1.55;;;27.00;50.40;;;;;;5032786;28;20029;-84
2022/06/15 10:32:01;;;;;;;6.60;1.42;;;27.00;50.50;;;;;;5032802;28;20025;-84
2022/06/15 10:34:31;;;;;;;7.15;1.58;;;27.10;50.50;;;;;;5032713;28;20021;-84
2022/06/15 10:37:00;;;;;;;8.98;1.20;;;27.10;50.30;;;;;;5032105;28;20159;-84
2022/06/15 10:39:32;;;;;;;6.07;1.55;;;27.00;49.90;;;;;;5032919;28;20141;-87
2022/06/15 10:42:37;;;;;;;5.28;1.40;;;26.80;50.20;;;;;;5033342;28;20022;-86
2022/06/15 10:45:06;;;;;;;4.97;1.42;;;26.90;50.90;;;;;;5021872;28;20056;-87
2022/06/15 10:47:53;;;;;;;5.10;1.63;;;26.90;50.90;;;;;;5031445;28;20050;-84
2022/06/15 10:50:30;;;;;;;7.13;2.10;;;27.10;50.90;;;;;;5031520;28;20048;-87
2022/06/15 10:53:00;;;;;;;4.47;2.13;;;27.00;51.10;;;;;;5032687;28;20045;-85
2022/06/15 11:04:34;;;;;;;2.75;1.30;;;27.00;50.50;;;;;;5032252;28;20052;-84
2022/06/15 11:07:31;;;;;;;6.07;1.95;;;26.70;50.50;;;;;;5032944;28;20081;-86
2022/06/15 11:09:57;;;;;;;7.97;1.85;;;26.60;50.70;;;;;;5028918;28;20034;-86
2022/06/15 11:12:24;;;;;;;3.05;1.10;;;26.40;51.10;;;;;;5031974;28;20084;-85
2022/06/15 11:15:00;;;;;;;9.43;1.88;;;26.70;51.20;;;;;;5032290;28;20109;-87
2022/06/15 11:20:25;;;;;;;10.52;1.50;;;27.10;50.40;;;;;;5031948;28;20044;-86
2022/06/15 11:22:54;;;;;;;4.45;1.40;;;27.00;50.60;;;;;;5032243;28;20028;-87
2022/06/15 11:25:35;;;;;;;9.77;1.63;;;27.00;51.00;;;;;;5031172;28;20367;-83
2022/06/15 11:28:08;;;;;;;5.82;1.40;;;27.20;50.10;;;;;;5031603;28;20037;-85
2022/06/15 11:30:46;;;;;;;8.73;1.35;;;27.20;49.80;;;;;;5031350;28;20317;-86
2022/06/15 11:33:18;;;;;;;24.30;12.63;;;27.00;50.40;;;;;;5032503;28;20387;-87
2022/06/15 11:36:05;;;;;;;5.35;2.35;;;27.10;50.40;;;;;;5032501;28;20042;-85
2022/06/15 11:38:49;;;;;;;8.05;2.40;;;27.00;50.20;;;;;;5032651;28;20093;-85
2022/06/15 11:41:35;;;;;;;4.97;1.25;;;27.00;50.30;;;;;;5033491;28;20192;-84
2022/06/15 11:44:06;;;;;;;5.28;1.10;;;27.00;50.50;;;;;;5031977;28;20041;-82
2022/06/15 11:46:56;;;;;;;5.00;1.33;;;27.10;50.00;;;;;;5030391;28;20029;-82
2022/06/15 11:49:33;;;;;;;5.78;1.50;;;26.90;50.30;;;;;;5030988;28;20034;-85
2022/06/15 11:52:34;;;;;;;8.90;1.50;;;26.80;51.10;;;;;;5030152;28;20474;-83
2022/06/15 11:55:09;;;;;;;10.30;2.00;;;27.00;50.80;;;;;;5018954;28;20055;-83
2022/06/15 11:58:06;;;;;;;4.80;1.63;;;27.40;49.40;;;;;;5030600;28;20034;-82
2022/06/15 12:00:52;;;;;;;4.90;1.05;;;27.60;49.30;;;;;;5031150;28;20132;-87
2022/06/15 12:03:51;;;;;;;5.33;1.17;;;27.40;49.30;;;;;;5031794;28;20237;-87
2022/06/15 12:06:23;;;;;;;5.00;1.30;;;27.30;49.90;;;;;;5030876;28;20026;-85
2022/06/15 12:08:55;;;;;;;4.95;1.40;;;27.40;49.40;;;;;;5031642;28;20030;-87
2022/06/15 12:14:48;;;;;;;5.57;1.33;;;27.60;49.60;;;;;;5031987;28;20043;-83
2022/06/15 12:17:42;;;;;;;9.45;1.85;;;27.60;49.60;;;;;;5029449;28;20053;-85
2022/06/15 12:20:23;;;;;;;3.38;1.17;;;27.60;49.10;;;;;;5030719;28;20033;-85
2022/06/15 12:23:02;;;;;;;8.55;1.88;;;27.50;49.50;;;;;;5029876;28;20044;-87
2022/06/15 12:25:32;;;;;;;6.85;2.08;;;27.40;50.50;;;;;;5030471;28;20032;-85
2022/06/15 12:28:17;;;;;;;5.57;1.77;;;27.50;49.90;;;;;;5031209;28;20112;-85
2022/06/15 12:30:50;;;;;;;6.85;2.15;;;27.50;50.00;;;;;;5031793;28;20030;-86
2022/06/15 12:34:06;;;;;;;9.35;1.80;;;27.50;49.30;;;;;;5029947;28;20045;-86
2022/06/15 12:37:07;;;;;;;5.38;1.50;;;27.40;49.20;;;;;;5021338;28;20127;-88
2022/06/15 12:39:59;;;;;;;7.22;1.50;;;27.40;49.20;;;;;;5030326;28;20037;-89
2022/06/15 12:42:25;;;;;;;7.57;1.73;;;27.30;48.90;;;;;;5031647;28;20045;-88
2022/06/15 12:45:18;;;;;;;3.30;1.40;;;27.30;49.10;;;;;;5033640;28;20029;-86
2022/06/15 12:47:51;;;;;;;5.05;1.48;;;27.30;48.90;;;;;;5034965;28;20037;-86
2022/06/15 12:50:17;;;;;;;5.03;1.38;;;27.30;48.90;;;;;;5034160;28;20090;-86
2022/06/15 12:53:01;;;;;;;3.92;2.00;;;27.20;48.70;;;;;;5034136;28;20096;-85
2022/06/15 12:55:40;;;;;;;6.53;1.73;;;27.20;48.30;;;;;;5034990;28;20587;-86
2022/06/15 12:58:34;;;;;;;5.72;1.50;;;26.90;48.80;;;;;;5034765;28;20029;-85
2022/06/15 13:01:18;;;;;;;3.25;1.35;;;26.90;49.20;;;;;;5033502;28;20077;-88
2022/06/15 13:03:47;;;;;;;4.28;1.42;;;26.90;49.20;;;;;;5034267;28;20030;-85
2022/06/15 13:06:31;;;;;;;3.90;1.27;;;26.70;49.30;;;;;;5034605;28;20082;-88
2022/06/15 13:09:14;;;;;;;5.43;1.42;;;26.80;49.60;;;;;;5034734;28;20056;-85
2022/06/15 13:12:11;;;;;;;6.63;2.10;;;26.80;48.80;;;;;;5034088;28;20034;-86
2022/06/15 13:14:55;;;;;;;7.03;1.30;;;27.00;48.60;;;;;;5033744;28;20030;-84
2022/06/15 13:17:25;;;;;;;9.57;1.60;;;27.00;48.20;;;;;;5034218;28;20037;-85
2022/06/15 13:20:00;;;;;;;3.30;1.20;;;26.90;47.40;;;;;;5034759;28;20029;-87
2022/06/15 13:22:31;;;;;;;5.70;1.45;;;26.90;47.50;;;;;;5034642;28;20033;-86
2022/06/15 13:25:03;;;;;;;4.30;1.25;;;26.80;47.60;;;;;;5033651;28;20117;-85
2022/06/15 13:28:12;;;;;;;4.97;1.63;;;26.80;48.00;;;;;;5033948;28;20044;-88
2022/06/15 13:30:47;;;;;;;5.20;1.50;;;26.80;48.20;;;;;;5034543;28;20264;-86
2022/06/15 13:33:13;;;;;;;6.05;1.35;;;26.90;48.10;;;;;;5034072;28;20073;-86